sensor_id;sensor_type;location;lat;lon;timestamp;pressure;altitude;pressure_sealevel;temperature;humidity
62980;BME280;49075;53.988;27.678;2023-01-31T00:01:14;966.9;;;-1.2;80.3
62980;BME280;49075;53.988;27.678;2023-01-31T00:06:14;966.9;;;-1.3;80.7
62980;BME280;49075;53.988;27.678;2023-01-31T00:11:33;967;;;-1.1;80.2
62980;BME280;49075;53.988;27.678;2023-01-31T00:16:13;967.1;;;-1;79.9
62980;BME280;49075;53.988;27.678;2023-01-31T00:21:45;967.1;;;-1;79.6
62980;BME280;49075;53.988;27.678;2023-01-31T00:26:14;967.1;;;-0.9;79.3
62980;BME280;49075;53.988;27.678;2023-01-31T00:31:32;967.1;;;-1;79.4
62980;BME280;49075;53.988;27.678;2023-01-31T00:36:35;967.1;;;-1;79.7
62980;BME280;49075;53.988;27.678;2023-01-31T00:41:13;967.1;;;-1;79.5
62980;BME280;49075;53.988;27.678;2023-01-31T00:46:45;967.1;;;-0.9;79.5
62980;BME280;49075;53.988;27.678;2023-01-31T00:51:13;967;;;-0.9;79.5
62980;BME280;49075;53.988;27.678;2023-01-31T00:56:23;967;;;-0.9;79.4
62980;BME280;49075;53.988;27.678;2023-01-31T01:01:24;967;;;-0.9;79.3
62980;BME280;49075;53.988;27.678;2023-01-31T01:06:25;967;;;-1;79.5
62980;BME280;49075;53.988;27.678;2023-01-31T01:11:33;967;;;-0.9;79.1
62980;BME280;49075;53.988;27.678;2023-01-31T01:16:14;967;;;-0.9;79.3
62980;BME280;49075;53.988;27.678;2023-01-31T01:21:26;967;;;-0.9;79.1
62980;BME280;49075;53.988;27.678;2023-01-31T01:26:33;967;;;-0.9;78.9
62980;BME280;49075;53.988;27.678;2023-01-31T01:31:25;967;;;-0.9;79
62980;BME280;49075;53.988;27.678;2023-01-31T01:36:13;966.9;;;-0.9;79
62980;BME280;49075;53.988;27.678;2023-01-31T01:41:23;967;;;-1;79.1
62980;BME280;49075;53.988;27.678;2023-01-31T01:46:14;967;;;-1.1;79.4
62980;BME280;49075;53.988;27.678;2023-01-31T01:51:37;967;;;-0.9;79
62980;BME280;49075;53.988;27.678;2023-01-31T01:56:14;967.1;;;-1;79.1
62980;BME280;49075;53.988;27.678;2023-01-31T02:01:23;967.1;;;-0.8;78.7
62980;BME280;49075;53.988;27.678;2023-01-31T02:06:35;967.3;;;-0.8;78.3
62980;BME280;49075;53.988;27.678;2023-01-31T02:11:25;967.3;;;-0.8;78.5
62980;BME280;49075;53.988;27.678;2023-01-31T02:16:25;967.3;;;-0.9;78.4
62980;BME280;49075;53.988;27.678;2023-01-31T02:22:29;967.3;;;-0.8;78.5
62980;BME280;49075;53.988;27.678;2023-01-31T02:26:20;967.3;;;-0.8;78
62980;BME280;49075;53.988;27.678;2023-01-31T02:36:47;967.4;;;-0.8;77.9
62980;BME280;49075;53.988;27.678;2023-01-31T02:41:36;967.4;;;-0.9;78.4
62980;BME280;49075;53.988;27.678;2023-01-31T02:46:27;967.5;;;-0.9;78.3
62980;BME280;49075;53.988;27.678;2023-01-31T02:51:26;967.5;;;-0.8;78.3
62980;BME280;49075;53.988;27.678;2023-01-31T02:56:37;967.5;;;-0.9;78.6
62980;BME280;49075;53.988;27.678;2023-01-31T03:01:17;967.5;;;-0.9;78.5
62980;BME280;49075;53.988;27.678;2023-01-31T03:07:07;967.5;;;-0.9;78.8
62980;BME280;49075;53.988;27.678;2023-01-31T03:11:29;967.5;;;-0.9;78.9
62980;BME280;49075;53.988;27.678;2023-01-31T03:16:26;967.4;;;-1;79.3
62980;BME280;49075;53.988;27.678;2023-01-31T03:21:38;967.5;;;-0.9;79.5
62980;BME280;49075;53.988;27.678;2023-01-31T03:26:25;967.5;;;-0.9;79.5
62980;BME280;49075;53.988;27.678;2023-01-31T03:31:27;967.4;;;-1.1;80.2
62980;BME280;49075;53.988;27.678;2023-01-31T03:36:27;967.5;;;-1.2;81
62980;BME280;49075;53.988;27.678;2023-01-31T03:41:28;967.6;;;-1;80.7
62980;BME280;49075;53.988;27.678;2023-01-31T03:47:04;967.7;;;-1.1;80.8
62980;BME280;49075;53.988;27.678;2023-01-31T03:51:40;967.7;;;-1.1;81.1
62980;BME280;49075;53.988;27.678;2023-01-31T03:56:15;967.8;;;-1.1;81.2
62980;BME280;49075;53.988;27.678;2023-01-31T04:01:17;967.9;;;-1.2;81.6
62980;BME280;49075;53.988;27.678;2023-01-31T04:06:29;967.9;;;-1;80.9
62980;BME280;49075;53.988;27.678;2023-01-31T04:11:39;967.9;;;-1.1;81.1
62980;BME280;49075;53.988;27.678;2023-01-31T04:16:39;967.9;;;-1.1;81.1
62980;BME280;49075;53.988;27.678;2023-01-31T04:21:29;967.9;;;-1.2;81.7
62980;BME280;49075;53.988;27.678;2023-01-31T04:26:17;968;;;-1.1;81.4
62980;BME280;49075;53.988;27.678;2023-01-31T04:31:13;967.9;;;-1.1;81.7
62980;BME280;49075;53.988;27.678;2023-01-31T04:36:23;968;;;-1.1;81.8
62980;BME280;49075;53.988;27.678;2023-01-31T04:41:37;968.1;;;-1.1;81.8
62980;BME280;49075;53.988;27.678;2023-01-31T04:46:13;968.2;;;-1.1;81.7
62980;BME280;49075;53.988;27.678;2023-01-31T04:51:25;968.2;;;-1;81.6
62980;BME280;49075;53.988;27.678;2023-01-31T04:56:15;968.3;;;-1;81.4
62980;BME280;49075;53.988;27.678;2023-01-31T05:01:57;968.3;;;-1;81.3
62980;BME280;49075;53.988;27.678;2023-01-31T05:06:25;968.4;;;-0.8;81
62980;BME280;49075;53.988;27.678;2023-01-31T05:11:23;968.4;;;-0.7;80.7
62980;BME280;49075;53.988;27.678;2023-01-31T05:16:15;968.4;;;-0.8;81
62980;BME280;49075;53.988;27.678;2023-01-31T05:21:25;968.4;;;-0.8;81
62980;BME280;49075;53.988;27.678;2023-01-31T05:26:15;968.5;;;-0.8;81.2
62980;BME280;49075;53.988;27.678;2023-01-31T05:31:23;968.5;;;-0.8;81
62980;BME280;49075;53.988;27.678;2023-01-31T05:36:25;968.6;;;-0.7;80.8
62980;BME280;49075;53.988;27.678;2023-01-31T05:41:37;968.6;;;-0.5;80.5
62980;BME280;49075;53.988;27.678;2023-01-31T05:46:27;968.7;;;-0.4;80.2
62980;BME280;49075;53.988;27.678;2023-01-31T05:51:15;968.8;;;-0.5;80.3
62980;BME280;49075;53.988;27.678;2023-01-31T05:56:15;968.9;;;-0.5;80.4
62980;BME280;49075;53.988;27.678;2023-01-31T06:01:15;968.9;;;-0.6;80.6
62980;BME280;49075;53.988;27.678;2023-01-31T06:06:37;969.1;;;-0.5;80.3
62980;BME280;49075;53.988;27.678;2023-01-31T06:11:15;969.1;;;-0.5;80.6
62980;BME280;49075;53.988;27.678;2023-01-31T06:16:15;969.2;;;-0.5;80.5
62980;BME280;49075;53.988;27.678;2023-01-31T06:21:15;969.3;;;-0.5;80.7
62980;BME280;49075;53.988;27.678;2023-01-31T06:26:15;969.5;;;-0.4;80.5
62980;BME280;49075;53.988;27.678;2023-01-31T06:31:15;969.5;;;-0.5;80.8
62980;BME280;49075;53.988;27.678;2023-01-31T06:36:15;969.5;;;-0.4;80.8
62980;BME280;49075;53.988;27.678;2023-01-31T06:41:15;969.6;;;-0.4;80.8
62980;BME280;49075;53.988;27.678;2023-01-31T06:46:23;969.6;;;-0.4;80.7
62980;BME280;49075;53.988;27.678;2023-01-31T06:51:15;969.7;;;-0.4;80.8
62980;BME280;49075;53.988;27.678;2023-01-31T06:56:23;969.8;;;-0.3;80.5
62980;BME280;49075;53.988;27.678;2023-01-31T07:01:15;969.8;;;-0.3;80.6
62980;BME280;49075;53.988;27.678;2023-01-31T07:06:35;969.9;;;-0.1;80.3
62980;BME280;49075;53.988;27.678;2023-01-31T07:11:23;969.9;;;0;80.1
62980;BME280;49075;53.988;27.678;2023-01-31T07:16:15;970;;;0.2;79.7
62980;BME280;49075;53.988;27.678;2023-01-31T07:21:15;970;;;0.3;79.4
62980;BME280;49075;53.988;27.678;2023-01-31T07:26:15;970.1;;;0.5;79.1
62980;BME280;49075;53.988;27.678;2023-01-31T07:31:23;970.1;;;0.5;78.9
62980;BME280;49075;53.988;27.678;2023-01-31T07:36:27;970.2;;;0.6;78.9
62980;BME280;49075;53.988;27.678;2023-01-31T07:41:31;970.2;;;0.6;78.7
62980;BME280;49075;53.988;27.678;2023-01-31T07:46:57;970.3;;;0.7;78.6
62980;BME280;49075;53.988;27.678;2023-01-31T07:51:33;970.4;;;0.7;78.5
62980;BME280;49075;53.988;27.678;2023-01-31T07:56:33;970.5;;;0.7;78.4
62980;BME280;49075;53.988;27.678;2023-01-31T08:01:22;970.5;;;0.6;78.6
62980;BME280;49075;53.988;27.678;2023-01-31T08:06:23;970.6;;;0.8;78.2
62980;BME280;49075;53.988;27.678;2023-01-31T08:11:15;970.7;;;1.1;77.9
62980;BME280;49075;53.988;27.678;2023-01-31T08:16:15;970.7;;;1.5;77
62980;BME280;49075;53.988;27.678;2023-01-31T08:21:15;970.7;;;1.5;77
62980;BME280;49075;53.988;27.678;2023-01-31T08:26:16;970.8;;;1.4;76.4
62980;BME280;49075;53.988;27.678;2023-01-31T08:31:33;970.8;;;1.3;77.1
62980;BME280;49075;53.988;27.678;2023-01-31T08:36:16;970.9;;;1.3;76.8
62980;BME280;49075;53.988;27.678;2023-01-31T08:41:24;971;;;1.4;76.9
62980;BME280;49075;53.988;27.678;2023-01-31T08:46:23;971.1;;;1.3;76.4
62980;BME280;49075;53.988;27.678;2023-01-31T08:51:35;971.2;;;1.3;77.1
62980;BME280;49075;53.988;27.678;2023-01-31T08:56:27;971.3;;;1.3;76.6
62980;BME280;49075;53.988;27.678;2023-01-31T09:01:23;971.3;;;1.4;76.7
62980;BME280;49075;53.988;27.678;2023-01-31T09:06:35;971.4;;;1.4;76.3
62980;BME280;49075;53.988;27.678;2023-01-31T09:11:15;971.4;;;1.5;76.3
62980;BME280;49075;53.988;27.678;2023-01-31T09:16:49;971.5;;;1.7;76.2
62980;BME280;49075;53.988;27.678;2023-01-31T09:21:27;971.5;;;1.6;75.7
62980;BME280;49075;53.988;27.678;2023-01-31T09:26:35;971.6;;;1.6;76
62980;BME280;49075;53.988;27.678;2023-01-31T09:31:23;971.6;;;1.5;75.6
62980;BME280;49075;53.988;27.678;2023-01-31T09:36:27;971.6;;;1.5;75.9
62980;BME280;49075;53.988;27.678;2023-01-31T09:41:24;971.7;;;1.5;75.6
62980;BME280;49075;53.988;27.678;2023-01-31T09:46:15;971.7;;;1.3;75.9
62980;BME280;49075;53.988;27.678;2023-01-31T09:51:58;971.7;;;1.2;76
62980;BME280;49075;53.988;27.678;2023-01-31T09:56:38;971.8;;;1.3;76.1
62980;BME280;49075;53.988;27.678;2023-01-31T10:01:28;971.9;;;1.2;75.9
62980;BME280;49075;53.988;27.678;2023-01-31T10:06:17;971.9;;;1.2;76.1
62980;BME280;49075;53.988;27.678;2023-01-31T10:11:28;972;;;1.3;75.8
62980;BME280;49075;53.988;27.678;2023-01-31T10:16:17;972;;;1.3;75.9
62980;BME280;49075;53.988;27.678;2023-01-31T10:21:15;972;;;1.2;75.9
62980;BME280;49075;53.988;27.678;2023-01-31T10:26:24;972;;;1.3;75.9
62980;BME280;49075;53.988;27.678;2023-01-31T10:31:25;972;;;1.3;75.8
62980;BME280;49075;53.988;27.678;2023-01-31T10:36:17;972;;;1.5;75.9
62980;BME280;49075;53.988;27.678;2023-01-31T10:41:38;972;;;1.5;75.4
62980;BME280;49075;53.988;27.678;2023-01-31T10:46:15;972.1;;;1.7;75.4
62980;BME280;49075;53.988;27.678;2023-01-31T10:51:43;972.1;;;1.6;75.2
62980;BME280;49075;53.988;27.678;2023-01-31T10:56:27;972.1;;;1.6;75.1
62980;BME280;49075;53.988;27.678;2023-01-31T11:01:43;972.1;;;1.6;75.3
62980;BME280;49075;53.988;27.678;2023-01-31T11:06:33;972.1;;;1.7;75.1
62980;BME280;49075;53.988;27.678;2023-01-31T11:11:24;972;;;2;74.5
62980;BME280;49075;53.988;27.678;2023-01-31T11:16:15;972;;;2.3;73.7
62980;BME280;49075;53.988;27.678;2023-01-31T11:21:18;972.1;;;2.3;73.2
62980;BME280;49075;53.988;27.678;2023-01-31T11:26:26;972.1;;;2.3;73
62980;BME280;49075;53.988;27.678;2023-01-31T11:31:28;972.1;;;2.1;72.6
62980;BME280;49075;53.988;27.678;2023-01-31T11:36:15;972.2;;;1.9;73.2
62980;BME280;49075;53.988;27.678;2023-01-31T11:41:29;972.2;;;1.7;73
62980;BME280;49075;53.988;27.678;2023-01-31T11:46:15;972.2;;;1.7;73.3
62980;BME280;49075;53.988;27.678;2023-01-31T11:51:35;972.3;;;1.8;73
62980;BME280;49075;53.988;27.678;2023-01-31T11:56:16;972.3;;;1.9;72.8
62980;BME280;49075;53.988;27.678;2023-01-31T12:01:15;972.2;;;1.7;72.9
62980;BME280;49075;53.988;27.678;2023-01-31T12:06:34;972.3;;;1.5;73.6
62980;BME280;49075;53.988;27.678;2023-01-31T12:11:26;972.4;;;1.4;73.4
62980;BME280;49075;53.988;27.678;2023-01-31T12:16:25;972.4;;;1.4;73.8
62980;BME280;49075;53.988;27.678;2023-01-31T12:21:25;972.5;;;1.3;73.6
62980;BME280;49075;53.988;27.678;2023-01-31T12:26:16;972.5;;;1.3;74
62980;BME280;49075;53.988;27.678;2023-01-31T12:31:18;972.6;;;1.1;74.4
62980;BME280;49075;53.988;27.678;2023-01-31T12:36:18;972.6;;;1.1;74.8
62980;BME280;49075;53.988;27.678;2023-01-31T12:41:17;972.7;;;0.9;74.9
62980;BME280;49075;53.988;27.678;2023-01-31T12:46:28;972.7;;;1;75.1
62980;BME280;49075;53.988;27.678;2023-01-31T12:51:25;972.8;;;1;74.9
62980;BME280;49075;53.988;27.678;2023-01-31T12:56:25;972.8;;;1.1;74.8
62980;BME280;49075;53.988;27.678;2023-01-31T13:01:36;972.9;;;1;74.4
62980;BME280;49075;53.988;27.678;2023-01-31T13:06:35;972.9;;;1.1;74.5
62980;BME280;49075;53.988;27.678;2023-01-31T13:11:26;973;;;1;74.1
62980;BME280;49075;53.988;27.678;2023-01-31T13:16:28;973;;;1.1;74.2
62980;BME280;49075;53.988;27.678;2023-01-31T13:21:37;973;;;1.1;73.7
62980;BME280;49075;53.988;27.678;2023-01-31T13:26:27;973.1;;;1.2;73.5
62980;BME280;49075;53.988;27.678;2023-01-31T13:31:22;973.1;;;1.1;72.9
62980;BME280;49075;53.988;27.678;2023-01-31T13:36:34;973.1;;;1;73.3
62980;BME280;49075;53.988;27.678;2023-01-31T13:41:16;973.1;;;0.9;73
62980;BME280;49075;53.988;27.678;2023-01-31T13:46:35;973.1;;;0.9;73.3
62980;BME280;49075;53.988;27.678;2023-01-31T13:51:24;973.1;;;0.9;73
62980;BME280;49075;53.988;27.678;2023-01-31T13:56:16;973.1;;;0.8;73.3
62980;BME280;49075;53.988;27.678;2023-01-31T14:01:14;973.2;;;0.7;73.1
62980;BME280;49075;53.988;27.678;2023-01-31T14:11:44;973.3;;;0.6;73.4
62980;BME280;49075;53.988;27.678;2023-01-31T14:16:38;973.3;;;0.5;73.8
62980;BME280;49075;53.988;27.678;2023-01-31T14:21:49;973.4;;;0.5;73.7
62980;BME280;49075;53.988;27.678;2023-01-31T14:26:49;973.4;;;0.4;74
62980;BME280;49075;53.988;27.678;2023-01-31T14:31:23;973.5;;;0.3;74.1
62980;BME280;49075;53.988;27.678;2023-01-31T14:36:41;973.5;;;0.2;74.6
62980;BME280;49075;53.988;27.678;2023-01-31T14:41:15;973.6;;;0.1;75
62980;BME280;49075;53.988;27.678;2023-01-31T14:46:18;973.6;;;0;75.4
62980;BME280;49075;53.988;27.678;2023-01-31T14:51:16;973.6;;;-0.1;75.6
62980;BME280;49075;53.988;27.678;2023-01-31T14:56:26;973.7;;;0;75.4
62980;BME280;49075;53.988;27.678;2023-01-31T15:01:16;973.8;;;0;75.2
62980;BME280;49075;53.988;27.678;2023-01-31T15:06:32;973.8;;;0;75.1
62980;BME280;49075;53.988;27.678;2023-01-31T15:11:39;973.8;;;0;75
62980;BME280;49075;53.988;27.678;2023-01-31T15:16:27;973.9;;;-0.1;75
62980;BME280;49075;53.988;27.678;2023-01-31T15:21:18;973.9;;;-0.2;75.1
62980;BME280;49075;53.988;27.678;2023-01-31T15:26:27;973.9;;;-0.2;75.1
62980;BME280;49075;53.988;27.678;2023-01-31T15:31:26;974;;;-0.3;75.3
62980;BME280;49075;53.988;27.678;2023-01-31T15:36:16;974.1;;;-0.4;75.3
62980;BME280;49075;53.988;27.678;2023-01-31T15:41:16;974.2;;;-0.3;75.3
62980;BME280;49075;53.988;27.678;2023-01-31T15:46:19;974.3;;;-0.3;75.3
62980;BME280;49075;53.988;27.678;2023-01-31T15:51:15;974.3;;;-0.3;75.2
62980;BME280;49075;53.988;27.678;2023-01-31T15:56:16;974.4;;;-0.3;75.2
62980;BME280;49075;53.988;27.678;2023-01-31T16:01:35;974.3;;;-0.2;75.2
62980;BME280;49075;53.988;27.678;2023-01-31T16:06:17;974.4;;;-0.2;75.2
62980;BME280;49075;53.988;27.678;2023-01-31T16:11:37;974.4;;;-0.2;75.1
62980;BME280;49075;53.988;27.678;2023-01-31T16:16:25;974.5;;;-0.3;75.2
62980;BME280;49075;53.988;27.678;2023-01-31T16:21:37;974.5;;;-0.3;75
62980;BME280;49075;53.988;27.678;2023-01-31T16:26:25;974.6;;;-0.3;74.8
62980;BME280;49075;53.988;27.678;2023-01-31T16:31:31;974.6;;;-0.4;74.5
62980;BME280;49075;53.988;27.678;2023-01-31T16:36:24;974.6;;;-0.4;74.6
62980;BME280;49075;53.988;27.678;2023-01-31T16:41:49;974.5;;;-0.4;74.5
62980;BME280;49075;53.988;27.678;2023-01-31T16:46:37;974.6;;;-0.4;74.7
62980;BME280;49075;53.988;27.678;2023-01-31T16:51:47;974.6;;;-0.4;74.6
62980;BME280;49075;53.988;27.678;2023-01-31T16:56:16;974.6;;;-0.5;74.8
62980;BME280;49075;53.988;27.678;2023-01-31T17:01:15;974.7;;;-0.5;74.9
62980;BME280;49075;53.988;27.678;2023-01-31T17:06:37;974.6;;;-0.5;74.9
62980;BME280;49075;53.988;27.678;2023-01-31T17:11:23;974.6;;;-0.6;74.9
62980;BME280;49075;53.988;27.678;2023-01-31T17:16:17;974.6;;;-0.6;75
62980;BME280;49075;53.988;27.678;2023-01-31T17:22:01;974.7;;;-0.7;75.1
62980;BME280;49075;53.988;27.678;2023-01-31T17:26:16;974.7;;;-0.8;75.5
62980;BME280;49075;53.988;27.678;2023-01-31T17:31:33;974.7;;;-1;76.1
62980;BME280;49075;53.988;27.678;2023-01-31T17:36:15;974.7;;;-0.8;75.9
62980;BME280;49075;53.988;27.678;2023-01-31T17:41:25;974.8;;;-0.9;75.9
62980;BME280;49075;53.988;27.678;2023-01-31T17:46:25;974.8;;;-0.8;76
62980;BME280;49075;53.988;27.678;2023-01-31T17:51:25;974.9;;;-0.8;76.1
62980;BME280;49075;53.988;27.678;2023-01-31T17:56:25;974.8;;;-0.8;76.2
62980;BME280;49075;53.988;27.678;2023-01-31T18:01:25;974.9;;;-0.9;76.6
62980;BME280;49075;53.988;27.678;2023-01-31T18:06:15;974.8;;;-0.9;76.5
62980;BME280;49075;53.988;27.678;2023-01-31T18:11:27;974.8;;;-0.9;76.6
62980;BME280;49075;53.988;27.678;2023-01-31T18:16:47;974.8;;;-0.9;76.6
62980;BME280;49075;53.988;27.678;2023-01-31T18:21:37;974.7;;;-0.9;76.5
62980;BME280;49075;53.988;27.678;2023-01-31T18:26:25;974.8;;;-1;76.6
62980;BME280;49075;53.988;27.678;2023-01-31T18:31:27;974.8;;;-0.9;76.5
62980;BME280;49075;53.988;27.678;2023-01-31T18:36:15;974.8;;;-0.8;76.2
62980;BME280;49075;53.988;27.678;2023-01-31T18:41:24;974.8;;;-0.9;76.2
62980;BME280;49075;53.988;27.678;2023-01-31T18:46:37;974.8;;;-0.8;76.1
62980;BME280;49075;53.988;27.678;2023-01-31T18:51:15;974.8;;;-0.8;76
62980;BME280;49075;53.988;27.678;2023-01-31T18:56:25;974.7;;;-0.8;76
62980;BME280;49075;53.988;27.678;2023-01-31T19:01:15;974.7;;;-0.9;75.9
62980;BME280;49075;53.988;27.678;2023-01-31T19:06:28;974.8;;;-0.9;75.6
62980;BME280;49075;53.988;27.678;2023-01-31T19:11:15;974.8;;;-0.9;75.7
62980;BME280;49075;53.988;27.678;2023-01-31T19:16:36;974.7;;;-0.9;75.5
62980;BME280;49075;53.988;27.678;2023-01-31T19:21:15;974.7;;;-0.7;75.4
62980;BME280;49075;53.988;27.678;2023-01-31T19:26:15;974.7;;;-0.7;75.2
62980;BME280;49075;53.988;27.678;2023-01-31T19:31:33;974.7;;;-0.8;75.3
62980;BME280;49075;53.988;27.678;2023-01-31T19:36:28;974.7;;;-0.8;75.1
62980;BME280;49075;53.988;27.678;2023-01-31T19:41:16;974.7;;;-0.9;74.9
62980;BME280;49075;53.988;27.678;2023-01-31T19:46:26;974.6;;;-1;75.2
62980;BME280;49075;53.988;27.678;2023-01-31T19:51:25;974.7;;;-1;74.8
62980;BME280;49075;53.988;27.678;2023-01-31T19:56:15;974.8;;;-1;74.5
62980;BME280;49075;53.988;27.678;2023-01-31T20:01:39;974.8;;;-0.9;74.1
62980;BME280;49075;53.988;27.678;2023-01-31T20:06:26;974.8;;;-0.9;74
62980;BME280;49075;53.988;27.678;2023-01-31T20:11:15;974.7;;;-0.7;73.7
62980;BME280;49075;53.988;27.678;2023-01-31T20:16:35;974.7;;;-0.6;73.6
62980;BME280;49075;53.988;27.678;2023-01-31T20:21:47;974.7;;;-0.5;73.1
62980;BME280;49075;53.988;27.678;2023-01-31T20:26:35;974.6;;;-0.6;73.2
62980;BME280;49075;53.988;27.678;2023-01-31T20:31:27;974.7;;;-0.6;72.9
62980;BME280;49075;53.988;27.678;2023-01-31T20:36:17;974.6;;;-0.6;73.2
62980;BME280;49075;53.988;27.678;2023-01-31T20:41:39;974.5;;;-0.6;72.6
62980;BME280;49075;53.988;27.678;2023-01-31T20:46:17;974.5;;;-0.7;73
62980;BME280;49075;53.988;27.678;2023-01-31T20:51:39;974.5;;;-0.7;72.6
62980;BME280;49075;53.988;27.678;2023-01-31T20:56:15;974.4;;;-0.7;72.8
62980;BME280;49075;53.988;27.678;2023-01-31T21:01:23;974.4;;;-0.8;72.1
62980;BME280;49075;53.988;27.678;2023-01-31T21:06:15;974.3;;;-0.7;72.6
62980;BME280;49075;53.988;27.678;2023-01-31T21:11:25;974.3;;;-0.8;72
62980;BME280;49075;53.988;27.678;2023-01-31T21:16:25;974.4;;;-0.8;72.1
62980;BME280;49075;53.988;27.678;2023-01-31T21:21:25;974.3;;;-0.8;72
62980;BME280;49075;53.988;27.678;2023-01-31T21:26:15;974.3;;;-0.9;71.9
62980;BME280;49075;53.988;27.678;2023-01-31T21:31:47;974.3;;;-1;72.3
62980;BME280;49075;53.988;27.678;2023-01-31T21:36:25;974.2;;;-1;72.1
62980;BME280;49075;53.988;27.678;2023-01-31T21:41:15;974.2;;;-1;72.4
62980;BME280;49075;53.988;27.678;2023-01-31T21:46:27;974.1;;;-1;72
62980;BME280;49075;53.988;27.678;2023-01-31T21:51:49;974.1;;;-1;72.5
62980;BME280;49075;53.988;27.678;2023-01-31T21:56:27;974;;;-1;72.1
62980;BME280;49075;53.988;27.678;2023-01-31T22:01:47;974;;;-1;72.4
62980;BME280;49075;53.988;27.678;2023-01-31T22:06:16;973.9;;;-1.1;72.5
62980;BME280;49075;53.988;27.678;2023-01-31T22:11:25;973.8;;;-1.1;72.8
62980;BME280;49075;53.988;27.678;2023-01-31T22:16:25;973.8;;;-1.2;72.6
62980;BME280;49075;53.988;27.678;2023-01-31T22:21:39;973.8;;;-1.2;73
62980;BME280;49075;53.988;27.678;2023-01-31T22:26:16;973.8;;;-1.3;73
62980;BME280;49075;53.988;27.678;2023-01-31T22:31:23;973.8;;;-1.2;73.1
62980;BME280;49075;53.988;27.678;2023-01-31T22:36:15;973.7;;;-1.2;73.1
62980;BME280;49075;53.988;27.678;2023-01-31T22:41:14;973.6;;;-1.2;73
62980;BME280;49075;53.988;27.678;2023-01-31T22:46:35;973.6;;;-1.2;72.9
62980;BME280;49075;53.988;27.678;2023-01-31T22:51:26;973.6;;;-1.1;72.8
62980;BME280;49075;53.988;27.678;2023-01-31T22:56:26;973.6;;;-1.1;72.8
62980;BME280;49075;53.988;27.678;2023-01-31T23:01:15;973.5;;;-1.1;72.7
62980;BME280;49075;53.988;27.678;2023-01-31T23:06:25;973.5;;;-1.3;73.3
62980;BME280;49075;53.988;27.678;2023-01-31T23:11:25;973.5;;;-1.4;73.5
62980;BME280;49075;53.988;27.678;2023-01-31T23:16:14;973.4;;;-1.3;73.5
62980;BME280;49075;53.988;27.678;2023-01-31T23:21:37;973.4;;;-1.2;73.4
62980;BME280;49075;53.988;27.678;2023-01-31T23:26:25;973.3;;;-1.2;73.7
62980;BME280;49075;53.988;27.678;2023-01-31T23:31:49;973.3;;;-1.3;73.8
62980;BME280;49075;53.988;27.678;2023-01-31T23:36:15;973.3;;;-1.2;73.9
62980;BME280;49075;53.988;27.678;2023-01-31T23:41:15;973.3;;;-1.3;74.1
62980;BME280;49075;53.988;27.678;2023-01-31T23:46:23;973.2;;;-1.4;74.7
62980;BME280;49075;53.988;27.678;2023-01-31T23:51:25;973.2;;;-1.3;74.4
62980;BME280;49075;53.988;27.678;2023-01-31T23:56:37;973.1;;;-1.3;74.6
